sensor_id;sensor_type;location;lat;lon;timestamp;pressure;altitude;pressure_sealevel;temperature;humidity
56392;BME280;42289;53.582;9.714;2022-12-18T00:01:22;102499.81;;;-5.38;100.00
56392;BME280;42289;53.582;9.714;2022-12-18T00:03:50;102499.22;;;-5.34;100.00
56392;BME280;42289;53.582;9.714;2022-12-18T00:06:18;102496.84;;;-5.31;100.00
56392;BME280;42289;53.582;9.714;2022-12-18T00:08:45;102498.25;;;-5.36;100.00
56392;BME280;42289;53.582;9.714;2022-12-18T00:11:14;102501.13;;;-5.30;100.00
56392;BME280;42289;53.582;9.714;2022-12-18T00:13:42;102502.28;;;-5.40;100.00
56392;BME280;42289;53.582;9.714;2022-12-18T00:16:11;102507.34;;;-5.40;100.00
56392;BME280;42289;53.582;9.714;2022-12-18T00:18:37;102511.47;;;-5.42;100.00
56392;BME280;42289;53.582;9.714;2022-12-18T00:21:05;102526.91;;;-5.37;100.00
56392;BME280;42289;53.582;9.714;2022-12-18T00:23:33;102529.53;;;-5.36;100.00
56392;BME280;42289;53.582;9.714;2022-12-18T00:26:00;102524.88;;;-5.60;100.00
56392;BME280;42289;53.582;9.714;2022-12-18T00:28:27;102529.22;;;-5.42;100.00
56392;BME280;42289;53.582;9.714;2022-12-18T00:31:00;102532.09;;;-5.51;100.00
56392;BME280;42289;53.582;9.714;2022-12-18T00:33:27;102526.94;;;-5.52;100.00
56392;BME280;42289;53.582;9.714;2022-12-18T00:35:54;102521.81;;;-5.54;100.00
56392;BME280;42289;53.582;9.714;2022-12-18T00:38:20;102526.72;;;-5.57;100.00
56392;BME280;42289;53.582;9.714;2022-12-18T00:40:47;102520.06;;;-5.55;100.00
56392;BME280;42289;53.582;9.714;2022-12-18T00:43:13;102522.25;;;-5.61;100.00
56392;BME280;42289;53.582;9.714;2022-12-18T00:45:39;102520.53;;;-5.77;100.00
56392;BME280;42289;53.582;9.714;2022-12-18T00:48:07;102527.56;;;-5.57;100.00
56392;BME280;42289;53.582;9.714;2022-12-18T00:50:34;102523.66;;;-5.66;100.00
56392;BME280;42289;53.582;9.714;2022-12-18T00:53:00;102540.16;;;-5.58;100.00
56392;BME280;42289;53.582;9.714;2022-12-18T00:55:27;102543.25;;;-5.79;100.00
56392;BME280;42289;53.582;9.714;2022-12-18T00:57:53;102536.50;;;-5.63;100.00
56392;BME280;42289;53.582;9.714;2022-12-18T01:00:20;102536.16;;;-5.69;100.00
56392;BME280;42289;53.582;9.714;2022-12-18T01:02:47;102536.41;;;-5.65;100.00
56392;BME280;42289;53.582;9.714;2022-12-18T01:05:15;102534.94;;;-5.61;100.00
56392;BME280;42289;53.582;9.714;2022-12-18T01:07:41;102537.63;;;-5.58;100.00
56392;BME280;42289;53.582;9.714;2022-12-18T01:10:10;102526.44;;;-5.62;100.00
56392;BME280;42289;53.582;9.714;2022-12-18T01:12:38;102521.91;;;-5.67;100.00
56392;BME280;42289;53.582;9.714;2022-12-18T01:15:06;102526.44;;;-5.62;100.00
56392;BME280;42289;53.582;9.714;2022-12-18T01:17:33;102528.13;;;-5.62;100.00
56392;BME280;42289;53.582;9.714;2022-12-18T01:20:00;102529.06;;;-5.60;100.00
56392;BME280;42289;53.582;9.714;2022-12-18T01:22:28;102520.25;;;-5.67;100.00
56392;BME280;42289;53.582;9.714;2022-12-18T01:24:54;102514.66;;;-5.61;100.00
56392;BME280;42289;53.582;9.714;2022-12-18T01:27:20;102522.97;;;-5.64;100.00
56392;BME280;42289;53.582;9.714;2022-12-18T01:29:47;102533.69;;;-5.53;100.00
56392;BME280;42289;53.582;9.714;2022-12-18T01:32:13;102528.38;;;-5.72;100.00
56392;BME280;42289;53.582;9.714;2022-12-18T01:34:40;102532.13;;;-5.66;100.00
56392;BME280;42289;53.582;9.714;2022-12-18T01:37:06;102531.19;;;-5.68;100.00
56392;BME280;42289;53.582;9.714;2022-12-18T01:39:34;102537.03;;;-5.69;100.00
56392;BME280;42289;53.582;9.714;2022-12-18T01:42:03;102544.72;;;-5.67;100.00
56392;BME280;42289;53.582;9.714;2022-12-18T01:44:54;102540.03;;;-5.76;100.00
56392;BME280;42289;53.582;9.714;2022-12-18T01:47:24;102543.56;;;-5.72;100.00
56392;BME280;42289;53.582;9.714;2022-12-18T01:49:53;102540.63;;;-5.80;100.00
56392;BME280;42289;53.582;9.714;2022-12-18T01:52:21;102538.94;;;-5.65;100.00
56392;BME280;42289;53.582;9.714;2022-12-18T01:54:50;102544.38;;;-5.73;100.00
56392;BME280;42289;53.582;9.714;2022-12-18T01:57:18;102557.75;;;-5.76;100.00
56392;BME280;42289;53.582;9.714;2022-12-18T01:59:48;102545.69;;;-5.80;100.00
56392;BME280;42289;53.582;9.714;2022-12-18T02:02:17;102543.66;;;-5.71;100.00
56392;BME280;42289;53.582;9.714;2022-12-18T02:04:43;102543.16;;;-5.80;100.00
56392;BME280;42289;53.582;9.714;2022-12-18T02:07:17;102557.31;;;-5.84;100.00
56392;BME280;42289;53.582;9.714;2022-12-18T02:09:48;102564.00;;;-5.84;100.00
56392;BME280;42289;53.582;9.714;2022-12-18T02:12:20;102570.13;;;-5.96;100.00
56392;BME280;42289;53.582;9.714;2022-12-18T02:14:54;102576.88;;;-5.96;100.00
56392;BME280;42289;53.582;9.714;2022-12-18T02:17:25;102580.13;;;-5.99;100.00
56392;BME280;42289;53.582;9.714;2022-12-18T02:20:04;102574.53;;;-6.08;100.00
56392;BME280;42289;53.582;9.714;2022-12-18T02:22:44;102577.84;;;-6.09;100.00
56392;BME280;42289;53.582;9.714;2022-12-18T02:25:26;102579.56;;;-6.23;100.00
56392;BME280;42289;53.582;9.714;2022-12-18T02:28:00;102584.34;;;-6.28;100.00
56392;BME280;42289;53.582;9.714;2022-12-18T02:30:29;102578.88;;;-6.20;100.00
56392;BME280;42289;53.582;9.714;2022-12-18T02:32:59;102579.75;;;-6.05;100.00
56392;BME280;42289;53.582;9.714;2022-12-18T02:35:29;102573.59;;;-6.38;100.00
56392;BME280;42289;53.582;9.714;2022-12-18T02:37:57;102571.34;;;-6.34;100.00
56392;BME280;42289;53.582;9.714;2022-12-18T02:40:26;102572.28;;;-6.32;100.00
56392;BME280;42289;53.582;9.714;2022-12-18T02:42:54;102574.47;;;-6.38;100.00
56392;BME280;42289;53.582;9.714;2022-12-18T02:45:21;102585.28;;;-6.40;100.00
56392;BME280;42289;53.582;9.714;2022-12-18T02:47:49;102583.63;;;-6.40;100.00
56392;BME280;42289;53.582;9.714;2022-12-18T02:50:19;102584.38;;;-6.41;100.00
56392;BME280;42289;53.582;9.714;2022-12-18T02:52:55;102587.22;;;-6.36;100.00
56392;BME280;42289;53.582;9.714;2022-12-18T02:55:35;102584.84;;;-6.33;100.00
56392;BME280;42289;53.582;9.714;2022-12-18T02:58:11;102584.91;;;-6.47;100.00
56392;BME280;42289;53.582;9.714;2022-12-18T03:00:45;102586.66;;;-6.46;100.00
56392;BME280;42289;53.582;9.714;2022-12-18T03:03:19;102591.91;;;-6.43;100.00
56392;BME280;42289;53.582;9.714;2022-12-18T03:05:52;102591.84;;;-6.57;100.00
56392;BME280;42289;53.582;9.714;2022-12-18T03:08:21;102589.97;;;-6.47;100.00
56392;BME280;42289;53.582;9.714;2022-12-18T03:10:51;102593.03;;;-6.37;100.00
56392;BME280;42289;53.582;9.714;2022-12-18T03:13:24;102595.41;;;-6.40;100.00
56392;BME280;42289;53.582;9.714;2022-12-18T03:15:57;102597.75;;;-6.15;100.00
56392;BME280;42289;53.582;9.714;2022-12-18T03:18:30;102596.94;;;-6.14;100.00
56392;BME280;42289;53.582;9.714;2022-12-18T03:20:58;102600.63;;;-6.37;100.00
56392;BME280;42289;53.582;9.714;2022-12-18T03:23:30;102596.59;;;-6.20;100.00
56392;BME280;42289;53.582;9.714;2022-12-18T03:26:05;102586.63;;;-6.17;100.00
56392;BME280;42289;53.582;9.714;2022-12-18T03:28:35;102582.34;;;-6.18;100.00
56392;BME280;42289;53.582;9.714;2022-12-18T03:31:07;102590.03;;;-6.17;100.00
56392;BME280;42289;53.582;9.714;2022-12-18T03:33:39;102582.78;;;-6.26;100.00
56392;BME280;42289;53.582;9.714;2022-12-18T03:36:08;102580.97;;;-6.13;100.00
56392;BME280;42289;53.582;9.714;2022-12-18T03:38:34;102591.47;;;-6.07;100.00
56392;BME280;42289;53.582;9.714;2022-12-18T03:41:06;102585.88;;;-6.01;100.00
56392;BME280;42289;53.582;9.714;2022-12-18T03:43:35;102587.56;;;-6.02;100.00
56392;BME280;42289;53.582;9.714;2022-12-18T03:46:12;102587.44;;;-6.03;100.00
56392;BME280;42289;53.582;9.714;2022-12-18T03:48:44;102585.03;;;-6.02;100.00
56392;BME280;42289;53.582;9.714;2022-12-18T03:51:16;102586.19;;;-5.95;100.00
56392;BME280;42289;53.582;9.714;2022-12-18T03:53:48;102584.03;;;-6.04;100.00
56392;BME280;42289;53.582;9.714;2022-12-18T03:56:17;102593.72;;;-6.12;100.00
56392;BME280;42289;53.582;9.714;2022-12-18T03:58:45;102594.22;;;-6.17;100.00
56392;BME280;42289;53.582;9.714;2022-12-18T04:01:15;102583.59;;;-6.12;100.00
56392;BME280;42289;53.582;9.714;2022-12-18T04:03:44;102579.41;;;-6.11;100.00
56392;BME280;42289;53.582;9.714;2022-12-18T04:06:13;102574.34;;;-6.11;100.00
56392;BME280;42289;53.582;9.714;2022-12-18T04:08:41;102581.75;;;-6.14;100.00
56392;BME280;42289;53.582;9.714;2022-12-18T04:11:08;102589.91;;;-6.33;100.00
56392;BME280;42289;53.582;9.714;2022-12-18T04:13:36;102583.81;;;-6.37;100.00
56392;BME280;42289;53.582;9.714;2022-12-18T04:16:11;102580.56;;;-6.34;100.00
56392;BME280;42289;53.582;9.714;2022-12-18T04:18:42;102584.47;;;-6.26;100.00
56392;BME280;42289;53.582;9.714;2022-12-18T04:21:09;102586.38;;;-6.22;100.00
56392;BME280;42289;53.582;9.714;2022-12-18T04:23:36;102592.03;;;-6.26;100.00
56392;BME280;42289;53.582;9.714;2022-12-18T04:26:02;102592.13;;;-6.24;100.00
56392;BME280;42289;53.582;9.714;2022-12-18T04:28:29;102580.16;;;-6.27;100.00
56392;BME280;42289;53.582;9.714;2022-12-18T04:30:57;102579.66;;;-6.21;100.00
56392;BME280;42289;53.582;9.714;2022-12-18T04:33:23;102575.88;;;-6.28;100.00
56392;BME280;42289;53.582;9.714;2022-12-18T04:35:51;102573.19;;;-6.31;100.00
56392;BME280;42289;53.582;9.714;2022-12-18T04:38:17;102572.91;;;-6.21;100.00
56392;BME280;42289;53.582;9.714;2022-12-18T04:40:44;102576.06;;;-6.25;100.00
56392;BME280;42289;53.582;9.714;2022-12-18T04:43:10;102574.34;;;-6.26;100.00
56392;BME280;42289;53.582;9.714;2022-12-18T04:45:37;102581.28;;;-6.37;100.00
56392;BME280;42289;53.582;9.714;2022-12-18T04:48:04;102570.88;;;-6.42;100.00
56392;BME280;42289;53.582;9.714;2022-12-18T04:50:31;102563.06;;;-6.31;100.00
56392;BME280;42289;53.582;9.714;2022-12-18T04:52:58;102560.69;;;-6.28;100.00
56392;BME280;42289;53.582;9.714;2022-12-18T04:55:25;102569.00;;;-6.16;100.00
56392;BME280;42289;53.582;9.714;2022-12-18T04:57:52;102559.75;;;-6.30;100.00
56392;BME280;42289;53.582;9.714;2022-12-18T05:00:18;102565.75;;;-6.28;100.00
56392;BME280;42289;53.582;9.714;2022-12-18T05:02:45;102572.28;;;-6.32;100.00
56392;BME280;42289;53.582;9.714;2022-12-18T05:05:12;102584.25;;;-6.29;100.00
56392;BME280;42289;53.582;9.714;2022-12-18T05:07:38;102594.66;;;-6.24;100.00
56392;BME280;42289;53.582;9.714;2022-12-18T05:10:09;102594.47;;;-6.28;100.00
56392;BME280;42289;53.582;9.714;2022-12-18T05:12:36;102605.31;;;-6.30;100.00
56392;BME280;42289;53.582;9.714;2022-12-18T05:15:23;102602.31;;;-6.38;100.00
56392;BME280;42289;53.582;9.714;2022-12-18T05:17:49;102611.91;;;-6.32;100.00
56392;BME280;42289;53.582;9.714;2022-12-18T05:20:16;102604.41;;;-6.31;100.00
56392;BME280;42289;53.582;9.714;2022-12-18T05:22:43;102600.13;;;-6.32;100.00
56392;BME280;42289;53.582;9.714;2022-12-18T05:25:11;102609.59;;;-6.14;100.00
56392;BME280;42289;53.582;9.714;2022-12-18T05:27:37;102608.91;;;-6.12;100.00
56392;BME280;42289;53.582;9.714;2022-12-18T05:30:04;102614.75;;;-6.13;100.00
56392;BME280;42289;53.582;9.714;2022-12-18T05:32:31;102619.06;;;-6.25;100.00
56392;BME280;42289;53.582;9.714;2022-12-18T05:34:57;102623.28;;;-6.26;100.00
56392;BME280;42289;53.582;9.714;2022-12-18T05:37:24;102628.47;;;-6.37;100.00
56392;BME280;42289;53.582;9.714;2022-12-18T05:39:50;102618.81;;;-6.30;100.00
56392;BME280;42289;53.582;9.714;2022-12-18T05:42:18;102625.13;;;-6.23;100.00
56392;BME280;42289;53.582;9.714;2022-12-18T05:44:44;102626.81;;;-6.09;100.00
56392;BME280;42289;53.582;9.714;2022-12-18T05:47:11;102639.16;;;-6.28;100.00
56392;BME280;42289;53.582;9.714;2022-12-18T05:49:37;102645.41;;;-6.36;100.00
56392;BME280;42289;53.582;9.714;2022-12-18T05:52:04;102644.34;;;-6.40;100.00
56392;BME280;42289;53.582;9.714;2022-12-18T05:54:30;102639.88;;;-6.44;100.00
56392;BME280;42289;53.582;9.714;2022-12-18T05:56:57;102632.03;;;-6.49;100.00
56392;BME280;42289;53.582;9.714;2022-12-18T05:59:25;102628.00;;;-6.45;100.00
56392;BME280;42289;53.582;9.714;2022-12-18T06:01:51;102621.91;;;-6.49;100.00
56392;BME280;42289;53.582;9.714;2022-12-18T06:04:17;102622.69;;;-6.50;100.00
56392;BME280;42289;53.582;9.714;2022-12-18T06:06:44;102631.34;;;-6.46;100.00
56392;BME280;42289;53.582;9.714;2022-12-18T06:09:10;102624.53;;;-6.47;100.00
56392;BME280;42289;53.582;9.714;2022-12-18T06:11:38;102637.66;;;-6.39;100.00
56392;BME280;42289;53.582;9.714;2022-12-18T06:14:05;102637.25;;;-6.46;100.00
56392;BME280;42289;53.582;9.714;2022-12-18T06:16:33;102637.81;;;-6.36;100.00
56392;BME280;42289;53.582;9.714;2022-12-18T06:19:01;102638.19;;;-6.30;100.00
56392;BME280;42289;53.582;9.714;2022-12-18T06:21:29;102637.31;;;-6.31;100.00
56392;BME280;42289;53.582;9.714;2022-12-18T06:23:56;102634.09;;;-6.28;100.00
56392;BME280;42289;53.582;9.714;2022-12-18T06:26:22;102635.94;;;-6.26;100.00
56392;BME280;42289;53.582;9.714;2022-12-18T06:28:49;102634.19;;;-6.27;100.00
56392;BME280;42289;53.582;9.714;2022-12-18T06:31:15;102636.88;;;-6.23;100.00
56392;BME280;42289;53.582;9.714;2022-12-18T06:33:43;102630.19;;;-6.23;100.00
56392;BME280;42289;53.582;9.714;2022-12-18T06:36:11;102630.44;;;-6.18;100.00
56392;BME280;42289;53.582;9.714;2022-12-18T06:38:39;102646.44;;;-6.19;100.00
56392;BME280;42289;53.582;9.714;2022-12-18T06:41:07;102643.78;;;-6.21;100.00
56392;BME280;42289;53.582;9.714;2022-12-18T06:43:33;102645.53;;;-6.20;100.00
56392;BME280;42289;53.582;9.714;2022-12-18T06:46:00;102643.78;;;-6.21;100.00
56392;BME280;42289;53.582;9.714;2022-12-18T06:48:27;102643.00;;;-6.20;100.00
56392;BME280;42289;53.582;9.714;2022-12-18T06:50:55;102637.88;;;-6.21;100.00
56392;BME280;42289;53.582;9.714;2022-12-18T06:53:21;102633.19;;;-6.15;100.00
56392;BME280;42289;53.582;9.714;2022-12-18T06:55:47;102637.88;;;-6.21;100.00
56392;BME280;42289;53.582;9.714;2022-12-18T06:58:14;102648.69;;;-6.24;100.00
56392;BME280;42289;53.582;9.714;2022-12-18T07:00:40;102654.59;;;-6.23;100.00
56392;BME280;42289;53.582;9.714;2022-12-18T07:03:07;102657.03;;;-6.25;100.00
56392;BME280;42289;53.582;9.714;2022-12-18T07:05:34;102657.41;;;-6.19;100.00
56392;BME280;42289;53.582;9.714;2022-12-18T07:08:01;102657.50;;;-6.17;100.00
56392;BME280;42289;53.582;9.714;2022-12-18T07:10:28;102654.28;;;-6.15;100.00
56392;BME280;42289;53.582;9.714;2022-12-18T07:12:54;102654.28;;;-6.15;100.00
56392;BME280;42289;53.582;9.714;2022-12-18T07:15:21;102660.03;;;-6.17;100.00
56392;BME280;42289;53.582;9.714;2022-12-18T07:17:47;102658.28;;;-6.18;100.00
56392;BME280;42289;53.582;9.714;2022-12-18T07:20:13;102667.22;;;-6.10;100.00
56392;BME280;42289;53.582;9.714;2022-12-18T07:22:40;102662.53;;;-6.04;100.00
56392;BME280;42289;53.582;9.714;2022-12-18T07:25:08;102670.44;;;-6.13;100.00
56392;BME280;42289;53.582;9.714;2022-12-18T07:27:35;102666.56;;;-6.21;100.00
56392;BME280;42289;53.582;9.714;2022-12-18T07:30:01;102665.19;;;-6.16;100.00
56392;BME280;42289;53.582;9.714;2022-12-18T07:32:28;102664.41;;;-6.15;100.00
56392;BME280;42289;53.582;9.714;2022-12-18T07:34:56;102674.31;;;-6.04;100.00
56392;BME280;42289;53.582;9.714;2022-12-18T07:37:22;102674.31;;;-6.04;100.00
56392;BME280;42289;53.582;9.714;2022-12-18T07:39:48;102680.25;;;-6.04;100.00
56392;BME280;42289;53.582;9.714;2022-12-18T07:42:16;102679.97;;;-6.09;100.00
56392;BME280;42289;53.582;9.714;2022-12-18T07:44:58;102684.84;;;-5.97;100.00
56392;BME280;42289;53.582;9.714;2022-12-18T07:47:24;102679.66;;;-6.00;100.00
56392;BME280;42289;53.582;9.714;2022-12-18T07:49:51;102684.78;;;-5.98;100.00
56392;BME280;42289;53.582;9.714;2022-12-18T07:52:18;102687.38;;;-5.97;100.00
56392;BME280;42289;53.582;9.714;2022-12-18T07:54:44;102691.75;;;-5.94;100.00
56392;BME280;42289;53.582;9.714;2022-12-18T07:57:18;102684.25;;;-5.93;100.00
56392;BME280;42289;53.582;9.714;2022-12-18T07:59:44;102677.72;;;-5.89;100.00
56392;BME280;42289;53.582;9.714;2022-12-18T08:02:11;102672.66;;;-5.89;100.00
56392;BME280;42289;53.582;9.714;2022-12-18T08:04:37;102676.31;;;-5.84;100.00
56392;BME280;42289;53.582;9.714;2022-12-18T08:07:03;102672.13;;;-5.83;100.00
56392;BME280;42289;53.582;9.714;2022-12-18T08:09:30;102680.00;;;-5.79;100.00
56392;BME280;42289;53.582;9.714;2022-12-18T08:11:56;102676.25;;;-5.70;100.00
56392;BME280;42289;53.582;9.714;2022-12-18T08:14:24;102663.00;;;-5.66;100.00
56392;BME280;42289;53.582;9.714;2022-12-18T08:16:50;102661.31;;;-5.66;100.00
56392;BME280;42289;53.582;9.714;2022-12-18T08:19:17;102665.38;;;-5.54;100.00
56392;BME280;42289;53.582;9.714;2022-12-18T08:21:43;102661.00;;;-5.57;100.00
56392;BME280;42289;53.582;9.714;2022-12-18T08:24:10;102667.97;;;-5.53;100.00
56392;BME280;42289;53.582;9.714;2022-12-18T08:26:36;102656.47;;;-5.48;100.00
56392;BME280;42289;53.582;9.714;2022-12-18T08:29:03;102668.50;;;-5.44;100.00
56392;BME280;42289;53.582;9.714;2022-12-18T08:31:31;102667.81;;;-5.41;100.00
56392;BME280;42289;53.582;9.714;2022-12-18T08:33:58;102664.56;;;-5.38;100.00
56392;BME280;42289;53.582;9.714;2022-12-18T08:36:24;102668.69;;;-5.41;100.00
56392;BME280;42289;53.582;9.714;2022-12-18T08:38:51;102660.72;;;-5.32;100.00
56392;BME280;42289;53.582;9.714;2022-12-18T08:41:18;102662.03;;;-5.24;100.00
56392;BME280;42289;53.582;9.714;2022-12-18T08:43:45;102666.38;;;-5.21;100.00
56392;BME280;42289;53.582;9.714;2022-12-18T08:46:34;102675.13;;;-5.16;100.00
56392;BME280;42289;53.582;9.714;2022-12-18T08:49:01;102678.97;;;-5.08;100.00
56392;BME280;42289;53.582;9.714;2022-12-18T08:51:28;102683.88;;;-5.11;100.00
56392;BME280;42289;53.582;9.714;2022-12-18T08:53:55;102683.88;;;-5.11;100.00
56392;BME280;42289;53.582;9.714;2022-12-18T08:56:21;102678.97;;;-5.08;100.00
56392;BME280;42289;53.582;9.714;2022-12-18T08:58:51;102683.94;;;-4.94;100.00
56392;BME280;42289;53.582;9.714;2022-12-18T09:01:17;102687.28;;;-4.95;100.00
56392;BME280;42289;53.582;9.714;2022-12-18T09:03:48;102698.38;;;-4.93;100.00
56392;BME280;42289;53.582;9.714;2022-12-18T09:06:16;102695.03;;;-4.92;100.00
56392;BME280;42289;53.582;9.714;2022-12-18T09:08:43;102687.94;;;-4.83;100.00
56392;BME280;42289;53.582;9.714;2022-12-18T09:11:13;102679.25;;;-4.71;100.00
56392;BME280;42289;53.582;9.714;2022-12-18T09:13:40;102675.44;;;-4.63;100.00
56392;BME280;42289;53.582;9.714;2022-12-18T09:16:07;102674.75;;;-4.61;100.00
56392;BME280;42289;53.582;9.714;2022-12-18T09:18:33;102674.47;;;-4.50;100.00
56392;BME280;42289;53.582;9.714;2022-12-18T09:21:07;102677.81;;;-4.35;100.00
56392;BME280;42289;53.582;9.714;2022-12-18T09:23:33;102684.06;;;-4.45;100.00
56392;BME280;42289;53.582;9.714;2022-12-18T09:26:00;102697.97;;;-4.38;100.00
56392;BME280;42289;53.582;9.714;2022-12-18T09:28:26;102693.81;;;-4.36;100.00
56392;BME280;42289;53.582;9.714;2022-12-18T09:30:53;102700.84;;;-4.32;100.00
56392;BME280;42289;53.582;9.714;2022-12-18T09:33:20;102710.75;;;-4.20;100.00
56392;BME280;42289;53.582;9.714;2022-12-18T09:35:48;102702.34;;;-4.19;100.00
56392;BME280;42289;53.582;9.714;2022-12-18T09:38:18;102703.31;;;-4.17;100.00
56392;BME280;42289;53.582;9.714;2022-12-18T09:40:48;102701.72;;;-4.15;100.00
56392;BME280;42289;53.582;9.714;2022-12-18T09:43:18;102704.41;;;-4.12;100.00
56392;BME280;42289;53.582;9.714;2022-12-18T09:45:49;102703.16;;;-4.03;100.00
56392;BME280;42289;53.582;9.714;2022-12-18T09:48:20;102711.47;;;-3.90;100.00
56392;BME280;42289;53.582;9.714;2022-12-18T09:50:48;102716.25;;;-3.96;100.00
56392;BME280;42289;53.582;9.714;2022-12-18T09:53:22;102716.72;;;-3.86;100.00
56392;BME280;42289;53.582;9.714;2022-12-18T09:55:51;102722.06;;;-3.82;100.00
56392;BME280;42289;53.582;9.714;2022-12-18T09:58:22;102721.41;;;-3.78;100.00
56392;BME280;42289;53.582;9.714;2022-12-18T10:00:51;102727.75;;;-3.69;100.00
56392;BME280;42289;53.582;9.714;2022-12-18T10:03:17;102729.41;;;-3.70;100.00
56392;BME280;42289;53.582;9.714;2022-12-18T10:05:53;102746.31;;;-3.54;100.00
56392;BME280;42289;53.582;9.714;2022-12-18T10:08:32;102755.16;;;-2.95;100.00
56392;BME280;42289;53.582;9.714;2022-12-18T10:11:03;102751.09;;;-2.73;100.00
56392;BME280;42289;53.582;9.714;2022-12-18T10:13:42;102768.78;;;-2.58;100.00
56392;BME280;42289;53.582;9.714;2022-12-18T10:16:15;102772.47;;;-2.88;100.00
56392;BME280;42289;53.582;9.714;2022-12-18T10:18:56;102772.41;;;-2.53;100.00
56392;BME280;42289;53.582;9.714;2022-12-18T10:21:30;102773.16;;;-2.56;100.00
56392;BME280;42289;53.582;9.714;2022-12-18T10:24:04;102777.06;;;-2.62;100.00
56392;BME280;42289;53.582;9.714;2022-12-18T10:26:40;102773.72;;;-2.61;100.00
56392;BME280;42289;53.582;9.714;2022-12-18T10:29:09;102775.53;;;-2.77;100.00
56392;BME280;42289;53.582;9.714;2022-12-18T10:31:38;102772.88;;;-2.62;100.00
56392;BME280;42289;53.582;9.714;2022-12-18T10:34:04;102765.34;;;-2.77;100.00
56392;BME280;42289;53.582;9.714;2022-12-18T10:36:30;102762.91;;;-2.75;100.00
56392;BME280;42289;53.582;9.714;2022-12-18T10:39:14;102761.75;;;-2.82;100.00
56392;BME280;42289;53.582;9.714;2022-12-18T10:41:41;102757.81;;;-2.75;100.00
56392;BME280;42289;53.582;9.714;2022-12-18T10:44:14;102757.94;;;-2.72;100.00
56392;BME280;42289;53.582;9.714;2022-12-18T10:46:43;102754.16;;;-2.62;100.00
56392;BME280;42289;53.582;9.714;2022-12-18T10:49:19;102744.28;;;-2.56;100.00
56392;BME280;42289;53.582;9.714;2022-12-18T10:51:47;102739.19;;;-2.56;100.00
56392;BME280;42289;53.582;9.714;2022-12-18T10:54:17;102738.53;;;-2.52;100.00
56392;BME280;42289;53.582;9.714;2022-12-18T10:56:45;102733.56;;;-2.49;100.00
56392;BME280;42289;53.582;9.714;2022-12-18T10:59:13;102746.06;;;-2.35;100.00
56392;BME280;42289;53.582;9.714;2022-12-18T11:01:49;102760.13;;;-2.44;100.00
56392;BME280;42289;53.582;9.714;2022-12-18T11:04:19;102763.09;;;-2.34;100.00
56392;BME280;42289;53.582;9.714;2022-12-18T11:06:57;102757.22;;;-2.33;100.00
56392;BME280;42289;53.582;9.714;2022-12-18T11:09:29;102753.09;;;-2.30;100.00
56392;BME280;42289;53.582;9.714;2022-12-18T11:11:58;102738.63;;;-2.31;100.00
56392;BME280;42289;53.582;9.714;2022-12-18T11:14:27;102743.81;;;-2.29;100.00
56392;BME280;42289;53.582;9.714;2022-12-18T11:16:55;102744.88;;;-2.24;100.00
56392;BME280;42289;53.582;9.714;2022-12-18T11:19:30;102737.81;;;-2.30;100.00
56392;BME280;42289;53.582;9.714;2022-12-18T11:21:58;102736.97;;;-2.30;100.00
56392;BME280;42289;53.582;9.714;2022-12-18T11:24:30;102738.56;;;-2.32;100.00
56392;BME280;42289;53.582;9.714;2022-12-18T11:26:58;102730.41;;;-2.25;100.00
56392;BME280;42289;53.582;9.714;2022-12-18T11:29:33;102741.66;;;-2.20;100.00
56392;BME280;42289;53.582;9.714;2022-12-18T11:32:22;102736.66;;;-2.18;100.00
56392;BME280;42289;53.582;9.714;2022-12-18T11:34:55;102733.03;;;-2.24;100.00
56392;BME280;42289;53.582;9.714;2022-12-18T11:37:24;102726.25;;;-2.23;100.00
56392;BME280;42289;53.582;9.714;2022-12-18T11:39:56;102729.25;;;-2.12;100.00
56392;BME280;42289;53.582;9.714;2022-12-18T11:42:28;102737.38;;;-2.01;100.00
56392;BME280;42289;53.582;9.714;2022-12-18T11:44:59;102745.31;;;-1.95;100.00
56392;BME280;42289;53.582;9.714;2022-12-18T11:47:31;102736.00;;;-1.95;100.00
56392;BME280;42289;53.582;9.714;2022-12-18T11:50:12;102729.41;;;-2.09;100.00
56392;BME280;42289;53.582;9.714;2022-12-18T11:52:41;102718.34;;;-2.10;100.00
56392;BME280;42289;53.582;9.714;2022-12-18T11:55:12;102711.69;;;-2.26;100.00
56392;BME280;42289;53.582;9.714;2022-12-18T11:57:47;102701.75;;;-2.39;100.00
56392;BME280;42289;53.582;9.714;2022-12-18T12:00:22;102691.78;;;-2.34;100.00
56392;BME280;42289;53.582;9.714;2022-12-18T12:03:06;102685.88;;;-2.33;100.00
56392;BME280;42289;53.582;9.714;2022-12-18T12:05:46;102678.81;;;-2.39;100.00
56392;BME280;42289;53.582;9.714;2022-12-18T12:08:21;102682.25;;;-2.39;100.00
56392;BME280;42289;53.582;9.714;2022-12-18T12:11:02;102689.00;;;-2.39;100.00
56392;BME280;42289;53.582;9.714;2022-12-18T12:13:41;102691.78;;;-2.34;100.00
56392;BME280;42289;53.582;9.714;2022-12-18T12:16:17;102688.28;;;-2.37;100.00
56392;BME280;42289;53.582;9.714;2022-12-18T12:18:55;102685.47;;;-2.43;100.00
56392;BME280;42289;53.582;9.714;2022-12-18T12:21:28;102667.72;;;-2.41;100.00
56392;BME280;42289;53.582;9.714;2022-12-18T12:24:04;102655.97;;;-2.38;100.00
56392;BME280;42289;53.582;9.714;2022-12-18T12:26:42;102643.03;;;-2.42;100.00
56392;BME280;42289;53.582;9.714;2022-12-18T12:29:23;102640.78;;;-2.36;100.00
56392;BME280;42289;53.582;9.714;2022-12-18T12:32:00;102630.59;;;-2.36;100.00
56392;BME280;42289;53.582;9.714;2022-12-18T12:34:34;102620.19;;;-2.41;100.00
56392;BME280;42289;53.582;9.714;2022-12-18T12:37:15;102615.97;;;-2.40;100.00
56392;BME280;42289;53.582;9.714;2022-12-18T12:39:47;102615.56;;;-2.30;100.00
56392;BME280;42289;53.582;9.714;2022-12-18T12:42:29;102619.91;;;-2.27;100.00
56392;BME280;42289;53.582;9.714;2022-12-18T12:45:18;102629.50;;;-2.22;100.00
56392;BME280;42289;53.582;9.714;2022-12-18T12:47:49;102633.66;;;-2.24;100.00
56392;BME280;42289;53.582;9.714;2022-12-18T12:50:19;102622.69;;;-2.23;100.00
56392;BME280;42289;53.582;9.714;2022-12-18T12:52:48;102622.41;;;-2.29;100.00